Time;durP1;ratioP1;P1;durP2;ratioP2;P2;SDS_P1;SDS_P2;PMS_P1;PMS_P2;Temp;Humidity;BMP_temperature;BMP_pressure;BME280_temperature;BME280_humidity;BME280_pressure;Samples;Min_cycle;Max_cycle;Signal;HPM_P1;HPM_P2
2022/10/16 00:01:51;;;;;;;5.55;3.95;;;;;;;23.25;46.13;97257.47;5032716;28;20033;-28
2022/10/16 00:04:16;;;;;;;7.50;4.82;;;;;;;23.17;46.36;97256.41;5032624;28;20052;-28
2022/10/16 00:06:42;;;;;;;6.30;4.85;;;;;;;23.26;46.44;97256.22;5024717;28;20029;-29
2022/10/16 00:09:08;;;;;;;5.00;4.30;;;;;;;23.22;46.30;97263.25;5018037;28;20088;-28
2022/10/16 00:11:38;;;;;;;8.07;4.53;;;;;;;23.31;46.23;97262.31;5014878;28;20072;-28
2022/10/16 00:14:10;;;;;;;5.55;4.50;;;;;;;23.35;46.32;97268.38;5014907;28;20033;-28
2022/10/16 00:16:35;;;;;;;6.80;4.32;;;;;;;23.29;46.27;97263.56;5014942;28;20528;-28
2022/10/16 00:19:00;;;;;;;7.32;4.50;;;;;;;23.37;45.92;97257.59;5014734;28;20029;-28
2022/10/16 00:21:28;;;;;;;8.88;4.57;;;;;;;23.33;46.11;97262.56;5014728;28;20055;-28
2022/10/16 00:23:58;;;;;;;6.45;4.90;;;;;;;23.26;46.23;97263.75;5015015;28;20418;-30
2022/10/16 00:26:25;;;;;;;6.05;4.38;;;;;;;23.29;45.91;97257.25;5014828;28;20386;-28
2022/10/16 00:28:51;;;;;;;6.60;4.43;;;;;;;23.28;45.89;97258.50;5014718;28;20033;-27
2022/10/16 00:31:18;;;;;;;5.18;4.32;;;;;;;23.35;45.92;97265.63;5013573;28;20104;-28
2022/10/16 00:33:44;;;;;;;7.60;4.85;;;;;;;23.42;45.46;97259.63;5014386;28;20049;-32
2022/10/16 00:36:12;;;;;;;5.88;4.70;;;;;;;23.37;45.68;97258.31;5014715;28;20057;-27
2022/10/16 00:38:37;;;;;;;5.43;4.80;;;;;;;23.36;45.83;97254.06;5014349;28;20048;-28
2022/10/16 00:41:03;;;;;;;7.45;5.10;;;;;;;23.37;45.91;97257.59;5014315;28;20406;-27
2022/10/16 00:43:43;;;;;;;6.90;4.70;;;;;;;23.34;45.88;97262.09;5014316;28;20034;-28
2022/10/16 00:46:37;;;;;;;9.45;4.53;;;;;;;23.31;45.61;97267.84;5014316;28;20117;-29
2022/10/16 00:49:09;;;;;;;6.28;4.82;;;;;;;23.19;46.24;97261.44;5013918;28;20121;-28
2022/10/16 00:51:56;;;;;;;6.15;4.57;;;;;;;23.35;45.81;97266.38;5014610;28;20096;-28
2022/10/16 00:54:25;;;;;;;7.93;5.25;;;;;;;23.24;45.88;97269.06;5013996;28;20037;-27
2022/10/16 00:56:53;;;;;;;5.25;4.53;;;;;;;23.29;46.11;97268.31;5014187;28;20022;-28
2022/10/16 00:59:24;;;;;;;7.95;4.53;;;;;;;23.27;45.88;97271.59;5014174;28;20123;-27
2022/10/16 01:01:50;;;;;;;6.38;5.00;;;;;;;23.28;45.87;97266.81;5012751;28;20026;-27
2022/10/16 01:04:17;;;;;;;6.72;4.50;;;;;;;23.26;46.19;97272.81;5013915;28;20041;-27
2022/10/16 01:06:46;;;;;;;7.10;4.57;;;;;;;23.29;45.99;97263.56;5014552;28;20050;-27
2022/10/16 01:09:22;;;;;;;5.03;4.30;;;;;;;23.35;45.84;97265.63;5013691;28;20030;-29
2022/10/16 01:12:04;;;;;;;5.25;4.35;;;;;;;23.34;45.70;97270.38;5012698;28;20441;-28
2022/10/16 01:14:52;;;;;;;7.13;5.20;;;;;;;23.37;45.66;97269.38;5013052;28;20041;-28
2022/10/16 01:17:49;;;;;;;7.47;4.82;;;;;;;23.37;45.37;97272.16;5013766;28;20482;-28
2022/10/16 01:20:27;;;;;;;6.45;4.32;;;;;;;23.37;45.49;97272.16;5013873;28;20057;-29
2022/10/16 01:23:17;;;;;;;7.18;5.10;;;;;;;23.34;45.63;97283.47;5013755;28;20120;-28
2022/10/16 01:26:10;;;;;;;5.50;4.50;;;;;;;23.36;45.63;97278.19;5013805;28;20079;-28
2022/10/16 01:28:41;;;;;;;5.82;4.22;;;;;;;23.35;45.42;97271.16;5013762;28;20091;-28
2022/10/16 01:31:09;;;;;;;6.80;5.03;;;;;;;23.31;45.49;97279.66;5012711;28;20026;-28
2022/10/16 01:34:04;;;;;;;6.13;4.40;;;;;;;23.29;45.55;97274.63;5013892;28;20099;-29
2022/10/16 01:36:39;;;;;;;8.00;4.82;;;;;;;23.32;45.60;97274.91;5014898;28;20402;-28
2022/10/16 01:39:08;;;;;;;6.75;4.45;;;;;;;23.33;45.50;97271.63;5013384;28;20026;-29
2022/10/16 01:41:39;;;;;;;5.60;4.75;;;;;;;23.40;45.29;97273.94;5013883;28;20048;-28
2022/10/16 01:44:09;;;;;;;5.57;4.60;;;;;;;23.36;45.74;97272.66;5013525;28;20022;-27
2022/10/16 01:46:38;;;;;;;8.05;4.95;;;;;;;23.33;45.42;97268.09;5013944;28;20030;-27
2022/10/16 01:49:11;;;;;;;5.35;4.72;;;;;;;23.33;45.63;97268.88;5013538;28;20030;-28
2022/10/16 01:51:37;;;;;;;5.88;4.78;;;;;;;23.37;45.53;97263.13;5013693;28;20025;-28
2022/10/16 01:54:09;;;;;;;7.10;5.10;;;;;;;23.32;45.68;97258.28;5013502;28;20362;-27
2022/10/16 01:56:45;;;;;;;7.05;5.03;;;;;;;23.36;45.59;97261.59;5013493;28;20033;-27
2022/10/16 01:59:21;;;;;;;5.22;4.57;;;;;;;23.35;45.68;97263.59;5013363;28;20474;-28
2022/10/16 02:02:07;;;;;;;7.63;5.03;;;;;;;23.35;45.50;97265.63;5013531;28;20433;-27
2022/10/16 02:04:40;;;;;;;8.35;5.32;;;;;;;23.34;45.90;97262.09;5013564;28;20098;-28
2022/10/16 02:07:07;;;;;;;7.57;5.60;;;;;;;23.35;45.96;97273.91;5013569;28;20030;-27
2022/10/16 02:09:34;;;;;;;5.82;5.05;;;;;;;23.36;45.79;97267.91;5010841;28;20041;-29
2022/10/16 02:12:08;;;;;;;7.68;5.13;;;;;;;23.35;45.85;97269.13;5011904;28;20024;-28
2022/10/16 02:14:38;;;;;;;5.72;4.97;;;;;;;23.38;45.94;97270.16;5013212;28;20022;-29
2022/10/16 02:17:12;;;;;;;7.10;4.88;;;;;;;23.33;46.10;97263.34;5013281;28;20026;-28
2022/10/16 02:19:38;;;;;;;6.78;5.13;;;;;;;23.39;45.78;97271.66;5012537;28;20021;-27
2022/10/16 02:22:07;;;;;;;6.68;5.00;;;;;;;23.42;45.89;97270.69;5015696;28;20478;-28
2022/10/16 02:24:36;;;;;;;7.45;5.03;;;;;;;23.40;45.95;97271.19;5015724;28;20025;-28
2022/10/16 02:27:09;;;;;;;7.03;5.43;;;;;;;23.34;45.94;97269.63;5016677;28;20109;-28
2022/10/16 02:29:44;;;;;;;5.93;5.30;;;;;;;23.35;46.23;97282.22;5016941;28;20036;-28
2022/10/16 02:32:12;;;;;;;5.90;5.28;;;;;;;23.34;46.16;97275.16;5017018;28;20038;-28
2022/10/16 02:34:39;;;;;;;6.90;5.07;;;;;;;23.34;45.68;97281.47;5016826;28;20030;-29
2022/10/16 02:37:06;;;;;;;7.38;5.20;;;;;;;23.30;46.05;97280.91;5016921;28;20097;-27
2022/10/16 02:39:33;;;;;;;9.32;5.10;;;;;;;23.32;45.84;97267.34;5016601;28;20129;-27
2022/10/16 02:42:01;;;;;;;7.65;5.82;;;;;;;23.29;46.12;97269.09;5016746;28;20421;-28
2022/10/16 02:44:26;;;;;;;9.10;5.20;;;;;;;23.35;45.75;97273.91;5016561;28;20553;-28
2022/10/16 02:46:52;;;;;;;7.47;6.07;;;;;;;23.26;46.13;97274.84;5016644;28;20034;-28
2022/10/16 02:49:18;;;;;;;6.57;4.95;;;;;;;23.27;46.06;97274.34;5015158;28;20029;-28
2022/10/16 02:51:43;;;;;;;6.63;5.15;;;;;;;23.31;45.93;97278.91;5016430;28;20080;-28
2022/10/16 02:54:09;;;;;;;6.10;5.10;;;;;;;23.27;46.17;97279.13;5016369;28;20026;-27
2022/10/16 02:56:34;;;;;;;6.70;5.43;;;;;;;23.26;46.28;97274.84;5016499;28;20105;-28
2022/10/16 02:59:01;;;;;;;9.43;6.05;;;;;;;23.28;45.93;97277.88;5015959;28;20026;-28
2022/10/16 03:01:28;;;;;;;8.63;5.88;;;;;;;23.31;46.08;97279.66;5016498;28;20048;-28
2022/10/16 03:03:53;;;;;;;6.88;5.60;;;;;;;23.32;45.94;97277.66;5014813;28;20080;-27
2022/10/16 03:06:19;;;;;;;6.32;5.43;;;;;;;23.32;45.94;97272.13;5016145;28;20029;-28
2022/10/16 03:08:44;;;;;;;6.18;4.90;;;;;;;23.27;46.11;97270.81;5015997;28;20110;-27
2022/10/16 03:11:09;;;;;;;7.72;5.57;;;;;;;23.27;46.10;97268.81;5016150;28;20509;-28
2022/10/16 03:13:35;;;;;;;8.10;6.30;;;;;;;23.33;46.11;97290.25;5015973;28;20030;-28
2022/10/16 03:16:01;;;;;;;8.43;6.07;;;;;;;23.29;45.94;97277.38;5015917;28;20026;-28
2022/10/16 03:18:26;;;;;;;6.75;5.38;;;;;;;23.26;46.37;97274.84;5016597;28;20075;-29
2022/10/16 03:20:52;;;;;;;8.73;5.70;;;;;;;23.25;46.45;97278.84;5015930;28;20022;-28
2022/10/16 03:23:17;;;;;;;7.35;5.85;;;;;;;23.29;46.04;97285.69;5015798;28;20478;-27
2022/10/16 03:25:43;;;;;;;9.27;5.70;;;;;;;23.22;46.03;97288.16;5015743;28;20375;-28
2022/10/16 03:28:08;;;;;;;7.72;5.32;;;;;;;23.24;46.23;97289.16;5015717;28;20030;-27
2022/10/16 03:30:34;;;;;;;7.32;5.30;;;;;;;23.24;46.12;97285.66;5015321;28;20026;-28
2022/10/16 03:32:59;;;;;;;6.65;5.50;;;;;;;23.10;46.67;97281.00;5015732;28;20030;-28
2022/10/16 03:35:25;;;;;;;8.98;5.97;;;;;;;23.18;46.28;97277.28;5015701;28;20056;-27
2022/10/16 03:37:51;;;;;;;8.13;5.70;;;;;;;23.20;46.18;97283.09;5015889;28;20374;-27
2022/10/16 03:40:17;;;;;;;7.55;5.15;;;;;;;23.20;46.13;97282.34;5015296;28;20056;-29
2022/10/16 03:42:43;;;;;;;7.15;5.38;;;;;;;23.18;45.92;97285.59;5015398;28;20080;-28
2022/10/16 03:45:10;;;;;;;7.68;5.45;;;;;;;23.19;45.86;97284.34;5015761;28;20498;-28
2022/10/16 03:47:35;;;;;;;6.38;5.03;;;;;;;23.15;45.92;97278.28;5014208;28;20104;-27
2022/10/16 03:50:03;;;;;;;8.15;5.47;;;;;;;23.18;45.83;97282.06;5015219;28;20120;-26
2022/10/16 03:52:28;;;;;;;6.18;5.40;;;;;;;23.17;45.94;97292.38;5015284;28;20097;-27
2022/10/16 03:54:54;;;;;;;7.28;5.50;;;;;;;23.17;45.98;97292.38;5014139;28;20060;-29
2022/10/16 03:57:20;;;;;;;8.63;5.40;;;;;;;23.18;46.05;97295.91;5013888;28;20088;-28
2022/10/16 03:59:46;;;;;;;7.05;5.68;;;;;;;23.16;45.96;97296.38;5015338;28;20033;-27
2022/10/16 04:02:12;;;;;;;6.35;5.13;;;;;;;23.20;45.73;97301.72;5015214;28;20022;-28
2022/10/16 04:04:37;;;;;;;7.45;5.10;;;;;;;23.18;45.70;97298.66;5014975;28;20026;-28
2022/10/16 04:07:03;;;;;;;6.00;4.90;;;;;;;23.12;46.00;97298.59;5014939;28;20029;-28
2022/10/16 04:09:29;;;;;;;7.32;5.68;;;;;;;23.19;45.34;97305.72;5015016;28;20022;-27
2022/10/16 04:11:54;;;;;;;6.82;4.85;;;;;;;23.15;45.36;97303.16;5013641;28;20096;-28
2022/10/16 04:14:20;;;;;;;7.00;5.60;;;;;;;23.17;45.58;97305.44;5014800;28;20049;-27
2022/10/16 04:16:45;;;;;;;7.13;5.00;;;;;;;23.18;45.53;97304.22;5014850;28;20037;-27
2022/10/16 04:19:11;;;;;;;6.55;5.07;;;;;;;23.17;45.61;97311.00;5013644;28;20053;-29
2022/10/16 04:21:37;;;;;;;6.90;4.75;;;;;;;23.13;45.19;97322.25;5014971;28;20021;-28
2022/10/16 04:24:03;;;;;;;5.82;4.75;;;;;;;23.11;45.52;97313.72;5014777;28;20030;-28
2022/10/16 04:26:29;;;;;;;5.85;4.80;;;;;;;23.13;45.29;97313.97;5014791;28;20037;-28
2022/10/16 04:28:56;;;;;;;8.10;4.85;;;;;;;23.12;45.23;97315.22;5014572;28;20120;-28
2022/10/16 04:31:21;;;;;;;5.05;4.35;;;;;;;23.10;45.46;97316.97;5013299;28;20080;-28
2022/10/16 04:33:47;;;;;;;6.70;4.80;;;;;;;23.10;45.52;97317.72;5014442;28;20105;-28
2022/10/16 04:36:13;;;;;;;6.88;4.80;;;;;;;23.15;45.43;97322.53;5014944;28;20490;-28
2022/10/16 04:38:39;;;;;;;5.93;5.20;;;;;;;23.14;45.38;97323.78;5014669;28;20188;-29
2022/10/16 04:41:06;;;;;;;5.93;4.82;;;;;;;23.10;45.67;97325.28;5014405;28;20057;-28
2022/10/16 04:43:31;;;;;;;5.95;4.90;;;;;;;23.13;45.34;97325.03;5013609;28;20467;-28
2022/10/16 04:45:57;;;;;;;6.80;4.70;;;;;;;23.16;45.27;97320.53;5014175;28;20029;-28
2022/10/16 04:48:22;;;;;;;8.02;5.05;;;;;;;23.15;45.52;97325.31;5014418;28;20079;-27
2022/10/16 04:50:49;;;;;;;5.50;4.65;;;;;;;23.14;45.51;97323.78;5014219;28;20018;-29
2022/10/16 04:53:15;;;;;;;6.10;4.88;;;;;;;23.16;45.48;97321.28;5014211;28;20370;-28
2022/10/16 04:55:42;;;;;;;6.00;5.25;;;;;;;23.15;45.20;97321.78;5014148;28;20025;-28
2022/10/16 04:58:08;;;;;;;6.68;5.40;;;;;;;23.15;45.58;97319.78;5014230;28;20026;-28
2022/10/16 05:00:34;;;;;;;6.15;4.78;;;;;;;23.17;45.41;97322.06;5014303;28;20021;-28
2022/10/16 05:03:00;;;;;;;7.30;5.20;;;;;;;23.04;45.89;97325.19;5014353;28;20026;-28
2022/10/16 05:05:28;;;;;;;6.97;5.25;;;;;;;23.06;45.81;97325.47;5014267;28;20022;-28
2022/10/16 05:07:53;;;;;;;8.25;4.88;;;;;;;23.07;45.71;97320.72;5014080;28;20052;-28
2022/10/16 05:10:20;;;;;;;6.28;4.90;;;;;;;23.11;45.37;97318.50;5013999;28;20053;-28
2022/10/16 05:12:46;;;;;;;5.95;5.10;;;;;;;23.10;45.38;97317.72;5013979;28;20022;-28
2022/10/16 05:15:11;;;;;;;6.78;4.65;;;;;;;23.11;45.21;97310.94;5014025;28;20467;-28
2022/10/16 05:17:37;;;;;;;6.88;4.93;;;;;;;23.10;45.15;97309.44;5013803;28;20030;-28
2022/10/16 05:20:03;;;;;;;6.80;5.00;;;;;;;23.08;45.36;97313.94;5013762;28;20024;-28
2022/10/16 05:22:28;;;;;;;6.90;4.78;;;;;;;23.13;45.22;97307.66;5012450;28;20029;-28
2022/10/16 05:24:54;;;;;;;6.53;4.85;;;;;;;23.14;45.32;97318.25;5013955;28;20344;-27
2022/10/16 05:27:20;;;;;;;6.30;4.88;;;;;;;23.14;45.03;97315.47;5013979;28;20380;-28
2022/10/16 05:29:46;;;;;;;6.00;4.43;;;;;;;23.13;45.30;97319.50;5013837;28;20471;-30
2022/10/16 05:32:13;;;;;;;7.18;4.82;;;;;;;23.11;45.28;97326.78;5012300;28;20026;-27
2022/10/16 05:34:39;;;;;;;6.55;5.72;;;;;;;23.11;45.60;97324.03;5013860;28;20098;-27
2022/10/16 05:37:05;;;;;;;5.60;4.80;;;;;;;23.09;45.47;97332.06;5013606;28;20069;-28
2022/10/16 05:39:30;;;;;;;8.02;4.72;;;;;;;23.08;45.75;97325.75;5013552;28;20076;-28
2022/10/16 05:41:56;;;;;;;6.28;4.82;;;;;;;23.07;45.64;97329.78;5013702;28;20033;-29
2022/10/16 05:44:21;;;;;;;6.38;4.72;;;;;;;23.07;45.79;97331.78;5013419;28;20486;-28
2022/10/16 05:46:47;;;;;;;6.22;5.15;;;;;;;23.05;45.59;97332.25;5013497;28;20022;-28
2022/10/16 05:49:12;;;;;;;8.93;5.43;;;;;;;23.06;45.56;97333.78;5013642;28;20473;-28
2022/10/16 05:51:39;;;;;;;6.30;4.88;;;;;;;23.08;45.53;97323.00;5013712;28;20093;-28
2022/10/16 05:54:04;;;;;;;5.65;4.63;;;;;;;23.12;45.58;97325.53;5015092;28;20482;-28
2022/10/16 05:56:30;;;;;;;7.22;5.05;;;;;;;23.08;45.69;97330.53;5017419;28;20033;-28
2022/10/16 05:58:55;;;;;;;7.43;5.07;;;;;;;23.08;45.64;97333.28;5017400;28;20053;-29
2022/10/16 06:01:23;;;;;;;7.03;5.05;;;;;;;23.09;45.70;97324.50;5017576;28;20033;-28
2022/10/16 06:03:52;;;;;;;7.53;4.75;;;;;;;23.09;45.95;97330.03;5017197;28;20030;-28
2022/10/16 06:06:23;;;;;;;7.28;5.40;;;;;;;23.08;46.08;97339.59;5016096;28;20029;-28
2022/10/16 06:08:49;;;;;;;8.50;4.85;;;;;;;23.07;45.79;97345.59;5017255;28;20029;-28
2022/10/16 06:11:21;;;;;;;6.35;4.45;;;;;;;23.07;45.93;97345.59;5034317;28;20371;-28
2022/10/16 06:13:51;;;;;;;5.50;4.75;;;;;;;23.09;45.71;97349.41;5036973;28;20173;-28
2022/10/16 06:16:17;;;;;;;7.60;4.65;;;;;;;23.07;45.81;97354.66;5037185;28;20037;-30
2022/10/16 06:18:43;;;;;;;6.45;4.93;;;;;;;23.06;46.29;97353.16;5037058;28;20048;-28
2022/10/16 06:21:16;;;;;;;6.10;4.63;;;;;;;23.07;45.93;97351.91;5036862;28;20077;-29
2022/10/16 06:23:41;;;;;;;5.93;4.75;;;;;;;23.07;46.28;97349.13;5036554;28;20029;-27
2022/10/16 06:26:12;;;;;;;7.68;4.97;;;;;;;23.07;45.93;97354.66;5035520;28;20074;-28
2022/10/16 06:28:38;;;;;;;5.70;4.60;;;;;;;23.00;46.31;97355.06;5036719;28;20029;-28
2022/10/16 06:31:06;;;;;;;5.60;4.47;;;;;;;23.05;46.19;97370.22;5036630;28;20025;-28
2022/10/16 06:33:31;;;;;;;8.88;5.68;;;;;;;23.08;45.96;97367.25;5035279;28;20021;-28
2022/10/16 06:36:05;;;;;;;8.93;5.90;;;;;;;23.05;46.19;97371.00;5036438;28;20029;-27
2022/10/16 06:38:31;;;;;;;10.23;6.90;;;;;;;23.03;46.54;97378.25;5036427;28;20017;-28
2022/10/16 06:40:57;;;;;;;15.05;8.43;;;;;;;23.06;46.34;97380.06;5036230;28;20048;-28
2022/10/16 06:43:24;;;;;;;16.38;10.60;;;;;;;23.03;46.27;97384.53;5036490;28;20477;-28
2022/10/16 06:45:55;;;;;;;23.27;13.40;;;;;;;23.07;46.23;97384.34;5036239;28;20022;-28
2022/10/16 06:48:21;;;;;;;29.58;17.10;;;;;;;23.07;46.50;97389.88;5036497;28;20338;-28
2022/10/16 06:51:14;;;;;;;29.35;18.15;;;;;;;23.06;46.36;97389.13;5035211;28;20029;-28
2022/10/16 06:53:41;;;;;;;;;;;;;;;23.09;46.40;97392.91;5036086;28;20045;-27
2022/10/16 06:56:22;;;;;;;35.92;21.63;;;;;;;23.06;46.35;97404.94;5036302;28;20373;-28
2022/10/16 06:58:48;;;;;;;36.95;22.35;;;;;;;23.08;46.45;97399.69;5036093;28;20041;-28
2022/10/16 07:01:15;;;;;;;41.83;24.75;;;;;;;23.01;46.65;97409.16;5036070;28;20386;-28
2022/10/16 07:03:42;;;;;;;44.05;26.92;;;;;;;23.06;46.77;97405.72;5034569;28;20025;-29
2022/10/16 07:06:09;;;;;;;48.42;29.25;;;;;;;23.07;46.65;97410.00;5035410;28;20037;-29
2022/10/16 07:08:37;;;;;;;48.92;28.73;;;;;;;23.08;46.82;97406.00;5036193;28;20049;-29
2022/10/16 07:11:05;;;;;;;47.97;30.00;;;;;;;23.04;46.71;97413.72;5035756;28;20025;-28
2022/10/16 07:13:33;;;;;;;52.60;29.23;;;;;;;23.05;47.06;97415.25;5035999;28;20104;-28
2022/10/16 07:16:08;;;;;;;42.70;27.70;;;;;;;23.11;46.90;97412.56;5035655;28;20032;-27
2022/10/16 07:18:33;;;;;;;42.00;25.88;;;;;;;23.12;46.60;97425.88;5034754;28;20052;-29
2022/10/16 07:21:12;;;;;;;40.97;24.85;;;;;;;23.07;47.09;97417.53;5013970;28;20470;-29
2022/10/16 07:23:38;;;;;;;34.00;22.30;;;;;;;23.05;47.21;97426.31;5012653;28;20042;-28
2022/10/16 07:26:04;;;;;;;38.53;21.92;;;;;;;23.07;47.24;97423.06;5012434;28;20171;-28
2022/10/16 07:28:31;;;;;;;37.75;23.63;;;;;;;23.07;47.20;97429.38;5017608;28;20382;-28
2022/10/16 07:31:04;;;;;;;37.67;22.42;;;;;;;23.10;47.26;97428.41;5032953;28;20037;-29
2022/10/16 07:33:31;;;;;;;36.13;20.65;;;;;;;23.05;47.30;97429.09;5031649;28;20034;-28
2022/10/16 07:35:56;;;;;;;32.55;20.15;;;;;;;23.09;47.36;97428.88;5033398;28;20033;-28
2022/10/16 07:38:22;;;;;;;32.60;18.90;;;;;;;23.09;47.43;97435.19;5033518;28;20033;-28
2022/10/16 07:40:48;;;;;;;30.63;18.98;;;;;;;23.06;47.48;97433.38;5033347;28;20512;-27
2022/10/16 07:43:14;;;;;;;31.50;19.25;;;;;;;23.02;47.78;97441.13;5033230;28;20381;-29
2022/10/16 07:45:50;;;;;;;27.98;17.27;;;;;;;23.05;47.83;97442.94;5033408;28;20037;-28
2022/10/16 07:48:17;;;;;;;25.05;15.63;;;;;;;23.06;47.72;97438.16;5033290;28;20490;-28
2022/10/16 07:50:43;;;;;;;22.70;15.52;;;;;;;23.00;47.76;97440.84;5033302;28;20029;-28
2022/10/16 07:53:10;;;;;;;24.02;15.15;;;;;;;23.03;47.68;97450.94;5031862;28;20022;-27
2022/10/16 07:55:35;;;;;;;22.55;14.02;;;;;;;22.99;48.13;97447.66;5032746;28;20425;-28
2022/10/16 07:58:01;;;;;;;20.45;11.93;;;;;;;22.88;48.47;97451.00;5033036;28;20065;-28
2022/10/16 08:00:28;;;;;;;20.08;13.57;;;;;;;22.97;48.40;97461.19;5032818;28;20027;-28
2022/10/16 08:02:53;;;;;;;19.58;12.15;;;;;;;23.03;48.22;97467.53;5032804;28;20036;-28
2022/10/16 08:05:19;;;;;;;15.30;10.60;;;;;;;23.06;48.01;97458.28;5032881;28;20033;-28
2022/10/16 08:07:49;;;;;;;16.15;10.95;;;;;;;23.03;48.67;97464.78;5028472;28;20088;-28
2022/10/16 08:10:21;;;;;;;14.82;10.45;;;;;;;22.97;48.41;97463.19;5013121;28;20079;-29
2022/10/16 08:12:46;;;;;;;18.42;9.82;;;;;;;23.06;48.58;97472.13;5013042;28;20079;-28
2022/10/16 08:15:12;;;;;;;14.85;8.95;;;;;;;22.95;48.80;97471.97;5012868;28;20034;-27
2022/10/16 08:17:37;;;;;;;15.82;9.77;;;;;;;22.99;49.02;97467.00;5010478;28;20032;-28
2022/10/16 08:20:04;;;;;;;12.05;8.48;;;;;;;23.04;48.63;97474.59;5012688;28;20026;-28
2022/10/16 08:22:30;;;;;;;14.02;8.35;;;;;;;23.01;49.13;97474.81;5012999;28;20054;-27
2022/10/16 08:24:55;;;;;;;10.82;7.63;;;;;;;23.01;48.90;97472.03;5013155;28;20132;-28
2022/10/16 08:27:21;;;;;;;15.07;8.40;;;;;;;23.06;49.03;97483.19;5015027;28;20033;-28
2022/10/16 08:29:48;;;;;;;12.90;7.60;;;;;;;22.99;49.30;97480.09;5014764;28;20378;-28
2022/10/16 08:32:14;;;;;;;9.98;6.68;;;;;;;22.97;49.34;97475.03;5014440;28;20434;-28
2022/10/16 08:34:39;;;;;;;12.00;8.13;;;;;;;23.03;49.04;97483.38;5014635;28;20108;-28
2022/10/16 08:37:04;;;;;;;11.63;7.28;;;;;;;23.07;49.04;97481.94;5014356;28;20021;-27
2022/10/16 08:39:41;;;;;;;10.13;6.78;;;;;;;22.95;48.74;97485.03;5118777;27;20169;-29
2022/10/16 08:42:30;;;;;;;9.73;6.60;;;;;;;23.00;49.35;97490.63;5090814;28;20518;-28
2022/10/16 08:45:04;;;;;;;10.35;6.35;;;;;;;22.89;49.56;97485.72;5080591;28;20032;-28
2022/10/16 08:48:06;;;;;;;10.73;5.75;;;;;;;22.88;49.07;97495.25;5090793;28;20091;-28
2022/10/16 08:50:38;;;;;;;10.15;6.88;;;;;;;22.88;49.75;97497.25;5090743;28;20392;-29
2022/10/16 08:53:06;;;;;;;8.73;5.53;;;;;;;22.97;49.58;97494.41;5089587;28;20069;-29
2022/10/16 08:55:50;;;;;;;7.65;5.32;;;;;;;23.00;49.65;97501.69;5090532;28;20492;-28
2022/10/16 08:58:18;;;;;;;9.30;5.78;;;;;;;22.93;49.66;97493.81;5090593;28;20035;-28
2022/10/16 09:00:48;;;;;;;6.30;4.80;;;;;;;22.91;49.58;97499.84;5089441;28;20024;-28
2022/10/16 09:03:38;;;;;;;7.47;5.68;;;;;;;23.01;49.65;97497.69;5090319;28;20536;-28
2022/10/16 09:06:33;;;;;;;7.32;5.07;;;;;;;22.82;49.84;97494.44;5090120;28;20072;-28
2022/10/16 09:09:15;;;;;;;7.57;4.28;;;;;;;22.98;49.86;97509.75;5089882;28;20025;-28
2022/10/16 09:12:25;;;;;;;6.65;4.80;;;;;;;22.75;50.48;97502.38;5090404;28;20419;-28
2022/10/16 09:15:28;;;;;;;6.38;4.47;;;;;;;22.96;50.15;97503.94;5081836;28;20089;-28
2022/10/16 09:18:04;;;;;;;6.30;4.72;;;;;;;22.91;49.84;97501.84;5090223;28;20364;-28
2022/10/16 09:20:33;;;;;;;9.80;4.72;;;;;;;22.92;50.09;97506.13;5090349;28;20539;-28
2022/10/16 09:23:04;;;;;;;6.50;4.60;;;;;;;22.93;49.99;97513.19;5090309;28;20028;-28
2022/10/16 09:25:31;;;;;;;7.72;4.43;;;;;;;22.90;49.90;97514.16;5090096;28;20464;-29
2022/10/16 09:27:57;;;;;;;5.57;4.20;;;;;;;22.75;50.34;97514.16;5090216;28;20024;-29
2022/10/16 09:30:26;;;;;;;5.28;3.70;;;;;;;22.88;50.01;97522.16;5089966;28;20104;-28
2022/10/16 09:32:53;;;;;;;5.47;4.00;;;;;;;23.01;50.53;97522.59;5087524;28;20028;-29
2022/10/16 09:35:35;;;;;;;6.00;4.20;;;;;;;22.86;51.88;97519.91;5087948;28;20492;-28
2022/10/16 09:38:00;;;;;;;5.55;3.70;;;;;;;22.99;50.31;97519.56;5087625;28;20048;-28
2022/10/16 09:40:34;;;;;;;5.70;3.78;;;;;;;23.04;50.19;97526.41;5085887;28;20078;-27
2022/10/16 09:43:17;;;;;;;5.18;3.92;;;;;;;22.75;50.44;97519.69;5087866;28;20392;-29
2022/10/16 09:45:54;;;;;;;4.90;3.47;;;;;;;22.80;51.04;97524.59;5087874;28;20082;-30
2022/10/16 09:48:21;;;;;;;5.88;3.97;;;;;;;22.89;50.42;97518.16;5086467;28;20653;-30
2022/10/16 09:50:56;;;;;;;5.53;3.70;;;;;;;23.07;49.91;97519.91;5073970;28;20033;-28
2022/10/16 09:53:22;;;;;;;5.63;3.40;;;;;;;23.08;50.47;97518.66;5074098;28;20103;-27
2022/10/16 09:55:52;;;;;;;6.30;3.63;;;;;;;22.98;50.65;97520.81;5073976;28;20115;-29
2022/10/16 09:58:21;;;;;;;5.78;3.47;;;;;;;23.03;50.47;97522.88;5073983;28;20077;-28
2022/10/16 10:00:53;;;;;;;7.88;3.53;;;;;;;22.56;52.95;97523.94;5073964;28;20028;-28
2022/10/16 10:03:37;;;;;;;6.88;3.80;;;;;;;22.82;51.94;97515.81;5074012;28;20035;-28
2022/10/16 10:06:17;;;;;;;6.47;3.28;;;;;;;22.88;51.52;97522.94;5073849;28;20032;-28
2022/10/16 10:09:00;;;;;;;6.00;3.22;;;;;;;22.80;52.54;97526.59;5073652;28;20104;-28
2022/10/16 10:11:55;;;;;;;7.97;3.80;;;;;;;22.70;52.33;97512.09;5073895;28;20484;-28
2022/10/16 10:14:22;;;;;;;4.30;3.40;;;;;;;22.99;50.70;97514.03;5073800;28;20037;-28
2022/10/16 10:16:48;;;;;;;8.57;3.45;;;;;;;22.98;51.37;97514.53;5073882;28;20373;-28
2022/10/16 10:19:19;;;;;;;7.82;3.30;;;;;;;22.83;52.04;97512.56;5073747;28;20085;-28
2022/10/16 10:21:45;;;;;;;7.68;3.53;;;;;;;22.77;52.10;97520.00;5073571;28;20131;-28
2022/10/16 10:24:14;;;;;;;13.55;3.55;;;;;;;22.84;51.94;97513.31;5073553;28;20088;-28
2022/10/16 10:27:10;;;;;;;4.82;3.65;;;;;;;22.85;52.85;97523.16;5073454;28;20033;-29
2022/10/16 10:29:44;;;;;;;7.03;3.47;;;;;;;22.47;54.65;97516.53;5073481;28;20025;-29
2022/10/16 10:32:19;;;;;;;4.95;2.97;;;;;;;22.81;51.92;97520.56;5073192;28;20064;-28
2022/10/16 10:35:01;;;;;;;6.35;3.22;;;;;;;22.93;52.19;97513.94;5073531;28;20036;-28
2022/10/16 10:37:27;;;;;;;7.40;3.40;;;;;;;22.52;53.50;97515.84;5072912;28;20437;-29
2022/10/16 10:40:24;;;;;;;4.45;3.13;;;;;;;22.70;53.29;97519.63;5073288;28;20109;-28
2022/10/16 10:42:56;;;;;;;5.30;3.08;;;;;;;22.73;52.21;97518.69;5072894;28;20119;-28
2022/10/16 10:45:27;;;;;;;6.07;3.03;;;;;;;22.98;51.83;97517.28;5072876;28;20020;-29
2022/10/16 10:48:11;;;;;;;6.13;3.30;;;;;;;23.09;50.94;97509.88;5073204;28;20111;-29
2022/10/16 10:50:49;;;;;;;5.43;2.75;;;;;;;23.20;50.44;97518.31;5062277;28;20095;-28
2022/10/16 10:53:24;;;;;;;3.45;2.78;;;;;;;23.18;50.67;97509.75;5072177;28;20095;-28
2022/10/16 10:56:16;;;;;;;3.00;2.38;;;;;;;23.23;50.33;97514.59;5072358;28;20543;-28
2022/10/16 10:59:18;;;;;;;4.57;2.90;;;;;;;23.23;50.26;97509.06;5072352;28;20028;-28
2022/10/16 11:02:20;;;;;;;4.70;3.00;;;;;;;23.25;50.01;97517.63;5071900;28;20028;-29
2022/10/16 11:05:09;;;;;;;3.85;2.75;;;;;;;23.22;50.35;97509.53;5071483;28;20103;-29
2022/10/16 11:07:44;;;;;;;4.25;2.67;;;;;;;23.15;50.37;97510.69;5072371;28;20102;-28
2022/10/16 11:10:18;;;;;;;4.47;2.80;;;;;;;23.26;50.19;97501.78;5071354;28;20063;-28
2022/10/16 11:13:27;;;;;;;5.65;2.53;;;;;;;23.28;49.61;97508.34;5072581;28;20391;-29
2022/10/16 11:15:56;;;;;;;5.00;2.63;;;;;;;23.19;50.17;97510.50;5071755;28;20037;-27
2022/10/16 11:18:39;;;;;;;4.15;2.58;;;;;;;23.22;49.95;97507.53;5071029;28;20028;-30
2022/10/16 11:21:10;;;;;;;3.70;2.50;;;;;;;23.20;49.90;97507.25;5072111;28;20036;-30
2022/10/16 11:23:50;;;;;;;3.42;2.40;;;;;;;23.22;49.87;97499.25;5072537;28;20656;-29
2022/10/16 11:26:33;;;;;;;3.25;2.20;;;;;;;23.22;50.12;97499.25;5067408;28;20473;-28
2022/10/16 11:29:02;;;;;;;4.07;2.13;;;;;;;23.20;49.92;97498.97;5054387;28;20083;-28
2022/10/16 11:31:50;;;;;;;3.83;2.17;;;;;;;23.24;49.78;97499.50;5054162;28;20055;-29
2022/10/16 11:34:35;;;;;;;3.95;2.20;;;;;;;23.28;49.88;97500.06;5054079;28;20013;-27
2022/10/16 11:37:04;;;;;;;3.75;2.00;;;;;;;23.27;49.69;97501.28;5052194;28;20037;-28
2022/10/16 11:39:30;;;;;;;3.30;2.30;;;;;;;23.21;49.81;97489.41;5052366;28;20080;-28
2022/10/16 11:41:56;;;;;;;3.47;2.13;;;;;;;23.22;49.83;97496.47;5054112;28;20500;-29
2022/10/16 11:44:32;;;;;;;3.47;2.30;;;;;;;23.23;49.79;97491.69;5054139;28;20056;-28
2022/10/16 11:47:08;;;;;;;4.47;2.08;;;;;;;23.25;49.62;97492.72;5053996;28;20125;-29
2022/10/16 11:49:37;;;;;;;3.00;2.05;;;;;;;23.24;49.47;97496.72;5054066;28;20013;-28